createdAt,value
2019-05-10T00:00:27.733Z,100629.64
2019-05-10T00:03:17.271Z,100635.84
2019-05-10T00:06:06.477Z,100627.81
2019-05-10T00:08:46.021Z,100636.53
2019-05-10T00:11:37.158Z,100642.22
2019-05-10T00:14:30.295Z,100640.73
2019-05-10T00:17:03.530Z,100643.34
2019-05-10T00:19:35.122Z,100643.34
2019-05-10T00:22:06.538Z,100636.69
2019-05-10T00:24:37.918Z,100632.28
2019-05-10T00:27:09.363Z,100633.95
2019-05-10T00:29:40.882Z,100625.83
2019-05-10T00:32:12.299Z,100632.55
2019-05-10T00:34:43.682Z,100634.55
2019-05-10T00:37:15.224Z,100627.59
2019-05-10T00:39:46.598Z,100628.69
2019-05-10T00:42:18.069Z,100628.78
2019-05-10T00:44:49.500Z,100620.14
2019-05-10T00:47:20.897Z,100626.47
2019-05-10T00:49:52.259Z,100627.11
2019-05-10T00:52:23.606Z,100624.25
2019-05-10T00:54:55.118Z,100614.55
2019-05-10T00:57:26.402Z,100609.52
2019-05-10T00:59:57.763Z,100607.80
2019-05-10T01:02:29.150Z,100609.27
2019-05-10T01:05:00.601Z,100606.67
2019-05-10T01:07:31.978Z,100616.72
2019-05-10T01:10:04.442Z,100616.51
2019-05-10T01:12:35.814Z,100607.97
2019-05-10T01:15:08.101Z,100599.47
2019-05-10T01:17:39.441Z,100604.98
2019-05-10T01:20:10.847Z,100603.95
2019-05-10T01:22:42.258Z,100614.38
2019-05-10T01:25:13.619Z,100613.66
2019-05-10T01:27:46.016Z,100621.00
2019-05-10T01:30:17.612Z,100626.94
2019-05-10T01:32:49.229Z,100620.95
2019-05-10T01:35:20.590Z,100621.00
2019-05-10T01:37:51.930Z,100619.76
2019-05-10T01:40:23.325Z,100618.39
2019-05-10T01:42:54.682Z,100620.83
2019-05-10T01:45:25.978Z,100619.13
2019-05-10T01:47:57.443Z,100626.17
2019-05-10T01:50:28.855Z,100630.70
2019-05-10T01:53:00.219Z,100635.79
2019-05-10T01:55:31.091Z,100642.75
2019-05-10T01:58:02.178Z,100641.98
2019-05-10T02:00:33.604Z,100648.34
2019-05-10T02:03:04.981Z,100650.91
2019-05-10T02:05:36.416Z,100645.56
2019-05-10T03:34:15.954Z,100724.90
2019-05-10T03:36:47.301Z,100726.52
2019-05-10T03:39:18.672Z,100726.05
2019-05-10T03:41:50.036Z,100730.62
2019-05-10T03:44:21.491Z,100729.51
2019-05-10T03:46:54.333Z,100727.53
2019-05-10T03:49:25.694Z,100740.86
2019-05-10T03:51:57.100Z,100740.86
2019-05-10T03:54:28.492Z,100726.97
2019-05-10T03:57:12.382Z,100726.66
2019-05-10T03:59:32.901Z,100723.20
2019-05-10T04:02:04.241Z,100728.16
2019-05-10T04:04:35.643Z,100735.42
2019-05-10T04:07:07.134Z,100728.19
2019-05-10T04:09:37.780Z,100727.85
2019-05-10T04:12:08.811Z,100730.80
2019-05-10T04:14:40.173Z,100726.16
2019-05-10T04:17:11.499Z,100726.16
2019-05-10T04:19:42.872Z,100727.22
2019-05-10T04:22:16.659Z,100721.36
2019-05-10T04:24:48.020Z,100729.39
2019-05-10T04:27:31.656Z,100726.68
2019-05-10T04:29:52.369Z,100732.06
2019-05-10T04:32:23.696Z,100727.92
2019-05-10T04:34:55.075Z,100730.27
2019-05-10T04:37:26.482Z,100722.80
2019-05-10T04:39:57.840Z,100734.23
2019-05-10T04:42:29.237Z,100737.70
2019-05-10T04:45:00.619Z,100739.42
2019-05-10T04:47:31.997Z,100737.42
2019-05-10T04:50:03.480Z,100737.83
2019-05-10T04:52:34.880Z,100742.45
2019-05-10T04:55:07.165Z,100738.86
2019-05-10T04:57:49.769Z,100742.69
2019-05-10T05:00:11.756Z,100746.40
2019-05-10T05:02:42.381Z,100746.97
2019-05-10T05:05:13.414Z,100751.36
2019-05-10T05:07:45.245Z,100744.75
2019-05-10T05:10:16.702Z,100748.64
2019-05-10T05:12:48.963Z,100749.32
2019-05-10T05:15:21.481Z,100755.16
2019-05-10T05:17:52.835Z,100752.93
2019-05-10T05:20:24.407Z,100753.91
2019-05-10T05:22:55.727Z,100762.77
2019-05-10T05:25:27.107Z,100760.92
2019-05-10T05:28:07.464Z,100764.75
2019-05-10T05:30:31.508Z,100764.61
2019-05-10T05:33:02.821Z,100753.75
2019-05-10T05:35:34.214Z,100762.53
2019-05-10T05:38:05.560Z,100760.42
2019-05-10T05:40:37.052Z,100770.80
2019-05-10T05:43:09.838Z,100767.31
2019-05-10T05:45:41.695Z,100774.69
2019-05-10T05:48:16.056Z,100760.69
2019-05-10T05:50:46.314Z,100749.81
2019-05-10T07:30:41.294Z,100744.97
2019-05-10T07:33:37.251Z,100748.55
2019-05-10T07:36:15.180Z,100750.07
2019-05-10T07:38:53.886Z,100742.13
2019-05-10T07:41:28.948Z,100751.44
2019-05-10T07:44:00.558Z,100745.27
2019-05-10T07:46:31.589Z,100751.31
2019-05-10T07:49:03.817Z,100745.89
2019-05-10T07:51:34.290Z,100743.40
2019-05-10T07:54:06.394Z,100745.57
2019-05-10T07:56:39.076Z,100760.22
2019-05-10T07:59:16.341Z,100760.79
2019-05-10T08:01:48.462Z,100751.25
2019-05-10T08:04:19.693Z,100745.53
2019-05-10T08:06:51.953Z,100747.77
2019-05-10T08:09:23.590Z,100740.27
2019-05-10T08:12:03.310Z,100748.66
2019-05-10T08:14:29.159Z,100740.88
2019-05-10T08:17:05.772Z,100743.28
2019-05-10T08:19:37.517Z,100747.25
2019-05-10T08:22:09.375Z,100742.66
2019-05-10T08:24:46.428Z,100747.25
2019-05-10T08:27:17.414Z,100757.41
2019-05-10T08:29:52.874Z,100743.20
2019-05-10T08:32:25.475Z,100735.47
2019-05-10T08:34:55.955Z,100737.92
2019-05-10T08:37:35.965Z,100739.81
2019-05-10T08:40:03.175Z,100738.13
2019-05-10T08:42:44.205Z,100741.66
2019-05-10T08:45:09.028Z,100746.72
2019-05-10T08:47:42.562Z,100749.83
2019-05-10T08:50:29.198Z,100743.72
2019-05-10T08:52:46.554Z,100739.23
2019-05-10T08:55:17.736Z,100735.97
2019-05-10T08:57:49.520Z,100739.96
2019-05-10T09:00:40.166Z,100741.98
2019-05-10T09:02:53.905Z,100741.47
2019-05-10T09:05:28.779Z,100744.20
2019-05-10T09:07:58.223Z,100736.70
2019-05-10T09:10:32.327Z,100745.23
2019-05-10T09:13:03.923Z,100743.81
2019-05-10T09:15:35.297Z,100742.36
2019-05-10T09:18:07.593Z,100730.37
2019-05-10T09:20:42.413Z,100732.74
2019-05-10T09:23:18.653Z,100731.52
2019-05-10T09:25:47.989Z,100729.88
2019-05-10T09:28:19.302Z,100717.20
2019-05-10T09:40:25.529Z,100707.27
2019-05-10T09:42:59.423Z,100706.17
2019-05-10T09:45:32.269Z,100705.53
2019-05-10T09:48:02.767Z,100701.98
2019-05-10T09:50:41.337Z,100698.45
2019-05-10T09:53:09.482Z,100694.19
2019-05-10T09:55:45.571Z,100700.97
2019-05-10T09:58:21.762Z,100692.22
2019-05-10T10:00:48.786Z,100692.15
2019-05-10T10:03:21.737Z,100697.39
2019-05-10T10:05:55.160Z,100695.23
2019-05-10T10:08:28.815Z,100689.55
2019-05-10T10:11:13.485Z,100688.83
2019-05-10T10:13:59.208Z,100693.17
2019-05-10T10:16:31.343Z,100687.27
2019-05-10T10:19:02.579Z,100679.82
2019-05-10T10:21:35.529Z,100686.32
2019-05-10T10:24:15.665Z,100672.44
2019-05-10T10:26:39.815Z,100674.35
2019-05-10T10:29:11.064Z,100665.97
2019-05-10T10:31:51.079Z,100667.16
2019-05-10T10:34:17.364Z,100665.22
2019-05-10T10:36:48.275Z,100664.46
2019-05-10T10:39:22.803Z,100672.08
2019-05-10T10:41:52.509Z,100667.69
2019-05-10T10:44:23.724Z,100667.28
2019-05-10T10:46:54.988Z,100676.46
2019-05-10T10:49:27.981Z,100670.46
2019-05-10T10:51:59.408Z,100670.63
2019-05-10T10:54:36.164Z,100675.80
2019-05-10T10:57:02.753Z,100677.66
2019-05-10T10:59:33.942Z,100684.97
2019-05-10T11:02:31.614Z,100685.97
2019-05-10T11:04:49.413Z,100693.27
2019-05-10T11:07:25.162Z,100678.73
2019-05-10T11:10:22.464Z,100671.88
2019-05-10T11:13:18.307Z,100672.47
2019-05-10T11:15:44.044Z,100665.85
2019-05-10T11:18:14.837Z,100668.05
2019-05-10T11:20:49.439Z,100657.81
2019-05-10T11:23:24.511Z,100650.34
2019-05-10T11:25:56.436Z,100652.73
2019-05-10T11:28:30.136Z,100645.56
2019-05-10T11:31:01.178Z,100652.66
2019-05-10T11:33:33.984Z,100650.45
2019-05-10T11:36:08.577Z,100648.34
2019-05-10T11:38:38.307Z,100650.98
2019-05-10T11:41:13.560Z,100661.58
2019-05-10T11:43:43.054Z,100656.69
2019-05-10T11:46:14.339Z,100649.48
2019-05-10T11:48:45.567Z,100654.47
2019-05-10T11:51:17.586Z,100649.27
2019-05-10T11:53:54.581Z,100656.57
2019-05-10T11:56:28.448Z,100646.34
2019-05-10T11:59:02.592Z,100655.78
2019-05-10T12:01:41.203Z,100642.88
2019-05-10T12:04:13.043Z,100644.64
2019-05-10T12:06:50.099Z,100645.28
2019-05-10T12:09:14.975Z,100641.92
2019-05-10T12:11:51.914Z,100644.30
2019-05-10T12:14:21.890Z,100644.90
2019-05-10T12:16:54.654Z,100639.95
2019-05-10T12:19:36.620Z,100640.00
2019-05-10T12:22:04.726Z,100637.62
2019-05-10T12:24:46.669Z,100638.95
2019-05-10T12:27:18.700Z,100639.95
2019-05-10T12:29:40.929Z,100637.03
2019-05-10T12:32:14.621Z,100634.64
2019-05-10T12:34:51.969Z,100627.93
2019-05-10T12:37:20.273Z,100625.44
2019-05-10T12:39:53.178Z,100615.92
2019-05-10T12:42:27.106Z,100609.64
2019-05-10T12:44:58.358Z,100601.70
2019-05-10T12:47:30.568Z,100608.08
2019-05-10T12:50:03.559Z,100600.75
2019-05-10T12:52:35.039Z,100606.80
2019-05-10T12:55:09.030Z,100598.20
2019-05-10T12:57:43.069Z,100595.97
2019-05-10T13:00:17.411Z,100593.77
2019-05-10T13:02:53.641Z,100596.86
2019-05-10T13:05:31.875Z,100588.39
2019-05-10T13:08:00.046Z,100582.49
2019-05-10T13:10:31.422Z,100577.22
2019-05-10T13:13:04.524Z,100576.33
2019-05-10T13:15:44.306Z,100570.52
2019-05-10T13:18:17.466Z,100581.20
2019-05-10T13:20:52.210Z,100582.89
2019-05-10T13:23:23.403Z,100577.91
2019-05-10T13:26:02.313Z,100581.00
2019-05-10T13:28:44.794Z,100576.88
2019-05-10T13:31:23.255Z,100569.95
2019-05-10T13:33:54.503Z,100565.53
2019-05-10T13:39:36.771Z,100565.36
2019-05-10T13:42:09.722Z,100565.29
2019-05-10T13:44:42.908Z,100563.84
2019-05-10T13:47:14.221Z,100566.44
2019-05-10T13:49:48.962Z,100567.07
2019-05-10T13:52:37.714Z,100570.69
2019-05-10T13:55:12.058Z,100571.46
2019-05-10T13:57:43.662Z,100580.92
2019-05-10T14:00:15.779Z,100572.31
2019-05-10T14:02:47.133Z,100575.14
2019-05-10T14:08:47.995Z,100575.25
2019-05-10T14:11:15.230Z,100568.56
2019-05-10T14:13:46.466Z,100573.78
2019-05-10T14:16:19.911Z,100572.78
2019-05-10T14:21:57.758Z,100568.78
2019-05-10T14:24:41.505Z,100566.66
2019-05-10T14:27:16.406Z,100566.66
2019-05-10T14:29:47.834Z,100568.69
2019-05-10T14:32:20.168Z,100566.45
2019-05-10T14:34:51.512Z,100563.72
2019-05-10T14:37:22.761Z,100559.21
2019-05-10T14:39:55.154Z,100558.45
2019-05-10T14:42:31.195Z,100559.45
2019-05-10T14:44:59.558Z,100561.31
2019-05-10T14:47:30.835Z,100566.58
2019-05-10T14:50:02.203Z,100560.77
2019-05-10T14:52:32.972Z,100558.85
2019-05-10T14:55:06.335Z,100559.52
2019-05-10T14:57:38.811Z,100560.91
2019-05-10T15:00:11.183Z,100561.12
2019-05-10T15:02:41.954Z,100564.28
2019-05-10T15:05:15.755Z,100566.30
2019-05-10T15:07:46.162Z,100569.20
2019-05-10T15:10:17.436Z,100562.27
2019-05-10T15:12:48.748Z,100562.36
2019-05-10T15:15:20.843Z,100569.93
2019-05-10T15:17:55.098Z,100572.82
2019-05-10T15:20:24.521Z,100568.33
2019-05-10T15:22:55.860Z,100566.70
2019-05-10T15:25:27.165Z,100564.52
2019-05-10T15:28:00.406Z,100565.23
2019-05-10T15:30:31.474Z,100571.21
2019-05-10T15:33:02.311Z,100573.48
2019-05-10T15:35:33.293Z,100575.55
2019-05-10T15:38:04.581Z,100575.61
2019-05-10T15:40:38.756Z,100579.47
2019-05-10T15:43:10.622Z,100570.88
2019-05-10T15:45:45.926Z,100570.80
2019-05-10T15:48:15.868Z,100565.84
2019-05-10T15:50:47.056Z,100557.95
2019-05-10T15:53:19.350Z,100566.77
2019-05-10T15:55:51.393Z,100563.31
2019-05-10T15:58:23.705Z,100565.93
2019-05-10T16:00:54.984Z,100564.75
2019-05-10T16:03:26.255Z,100563.48
2019-05-10T16:06:00.921Z,100556.13
2019-05-10T16:08:32.029Z,100558.56
2019-05-10T16:11:18.058Z,100553.91
2019-05-10T16:13:39.204Z,100548.99
2019-05-10T16:16:09.780Z,100545.47
2019-05-10T16:18:41.794Z,100547.70
2019-05-10T16:21:15.096Z,100546.41
2019-05-10T16:23:48.383Z,100544.56
2019-05-10T16:26:23.094Z,100545.55
2019-05-10T16:29:01.754Z,100545.16
2019-05-10T16:31:28.948Z,100546.30
2019-05-10T16:34:00.550Z,100546.62
2019-05-10T16:36:31.413Z,100544.39
2019-05-10T16:39:02.730Z,100544.70
2019-05-10T16:41:35.695Z,100542.34
2019-05-10T16:44:06.479Z,100541.95
2019-05-10T16:46:37.590Z,100536.67
2019-05-10T16:49:10.097Z,100540.89
2019-05-10T16:51:42.298Z,100538.45
2019-05-10T16:54:24.695Z,100541.70
2019-05-10T16:56:51.614Z,100544.28
2019-05-10T16:59:24.269Z,100539.72
2019-05-10T17:02:03.577Z,100544.19
2019-05-10T17:04:31.924Z,100544.48
2019-05-10T17:07:12.786Z,100539.41
2019-05-10T17:09:44.539Z,100543.85
2019-05-10T17:12:15.908Z,100543.17
2019-05-10T17:14:50.585Z,100540.15
2019-05-10T17:20:19.794Z,100551.39
2019-05-10T17:22:51.471Z,100546.77
2019-05-10T17:25:24.967Z,100554.49
2019-05-10T17:27:59.828Z,100558.33
2019-05-10T17:30:29.717Z,100550.23
2019-05-10T17:33:04.117Z,100556.50
2019-05-10T17:35:36.524Z,100554.73
2019-05-10T17:38:13.926Z,100557.58
2019-05-10T17:40:42.326Z,100557.59
2019-05-10T17:43:20.410Z,100554.23
2019-05-10T17:45:47.319Z,100553.38
2019-05-10T17:48:18.695Z,100557.44
2019-05-10T17:50:50.028Z,100550.98
2019-05-10T17:53:33.105Z,100555.32
2019-05-10T17:56:06.149Z,100553.11
2019-05-10T17:58:37.148Z,100549.94
2019-05-10T18:01:08.291Z,100548.42
2019-05-10T18:03:39.345Z,100550.77
2019-05-10T18:06:23.640Z,100555.98
2019-05-10T18:08:45.894Z,100555.27
2019-05-10T18:11:19.566Z,100555.45
2019-05-10T18:13:50.600Z,100554.39
2019-05-10T18:16:21.829Z,100553.42
2019-05-10T18:26:00.947Z,100560.38
2019-05-10T18:28:34.439Z,100557.94
2019-05-10T18:31:05.334Z,100553.48
2019-05-10T18:33:36.584Z,100548.92
2019-05-10T18:36:12.787Z,100548.61
2019-05-10T18:38:44.357Z,100552.08
2019-05-10T18:41:15.204Z,100547.34
2019-05-10T18:43:46.417Z,100551.89
2019-05-10T18:46:19.680Z,100557.27
2019-05-10T18:48:52.693Z,100554.86
2019-05-10T18:51:26.316Z,100559.70
2019-05-10T18:53:58.345Z,100549.67
2019-05-10T18:56:31.409Z,100557.47
2019-05-10T18:59:07.370Z,100558.91
2019-05-10T19:01:38.874Z,100556.91
2019-05-10T19:04:14.003Z,100557.30
2019-05-10T19:06:44.278Z,100553.66
2019-05-10T19:09:16.033Z,100557.36
2019-05-10T19:11:50.520Z,100565.64
2019-05-10T19:14:23.799Z,100559.25
2019-05-10T19:16:55.136Z,100562.66
2019-05-10T19:19:26.005Z,100569.39
2019-05-10T19:21:57.215Z,100564.14
2019-05-10T19:24:30.414Z,100567.93
2019-05-10T19:27:07.340Z,100574.61
2019-05-10T19:29:45.597Z,100571.30
2019-05-10T19:32:17.582Z,100569.02
2019-05-10T19:34:48.496Z,100567.14
2019-05-10T19:37:29.847Z,100574.19
2019-05-10T19:39:50.848Z,100575.44
2019-05-10T19:42:22.280Z,100575.34
2019-05-10T19:44:54.978Z,100575.28
2019-05-10T19:47:27.984Z,100576.56
2019-05-10T19:50:02.759Z,100581.62
2019-05-10T19:52:34.294Z,100567.11
2019-05-10T19:55:05.133Z,100570.70
2019-05-10T19:57:36.232Z,100577.55
2019-05-10T20:00:07.699Z,100577.55
2019-05-10T20:02:38.485Z,100572.80
2019-05-10T20:05:09.587Z,100573.53
2019-05-10T20:07:45.772Z,100579.03
2019-05-10T20:10:14.235Z,100577.66
2019-05-10T20:12:45.058Z,100577.03
2019-05-10T20:15:16.175Z,100589.02
2019-05-10T20:17:47.623Z,100584.03
2019-05-10T20:20:18.967Z,100585.77
2019-05-10T20:22:50.411Z,100586.14
2019-05-10T20:25:21.810Z,100591.16
2019-05-10T20:27:53.188Z,100587.53
2019-05-10T20:30:24.601Z,100594.13
2019-05-10T20:32:56.108Z,100597.77
2019-05-10T20:35:27.447Z,100598.72
2019-05-10T20:38:02.154Z,100599.20
2019-05-10T20:40:32.467Z,100603.30
2019-05-10T20:43:03.840Z,100603.88
2019-05-10T20:45:35.375Z,100606.05
2019-05-10T20:48:06.807Z,100610.28
2019-05-10T20:50:38.268Z,100612.28
2019-05-10T20:53:09.618Z,100615.88
2019-05-10T20:55:41.016Z,100620.02
2019-05-10T20:58:12.428Z,100617.72
2019-05-10T21:00:43.956Z,100619.77
2019-05-10T21:03:15.303Z,100616.61
2019-05-10T21:05:47.628Z,100625.53
2019-05-10T21:08:19.051Z,100623.96
2019-05-10T21:10:50.446Z,100631.56
2019-05-10T21:13:21.776Z,100640.49
2019-05-10T21:15:53.178Z,100637.37
2019-05-10T21:18:24.576Z,100647.32
2019-05-10T21:20:56.108Z,100645.14
2019-05-10T21:23:27.496Z,100652.87
2019-05-10T21:25:59.989Z,100655.98
2019-05-10T21:28:31.401Z,100658.08
2019-05-10T21:31:02.908Z,100654.05
2019-05-10T21:33:34.247Z,100657.68
2019-05-10T21:36:05.607Z,100656.83
2019-05-10T21:38:36.966Z,100660.28
2019-05-10T21:41:08.375Z,100661.64
2019-05-10T21:43:39.729Z,100671.13
2019-05-10T21:46:11.111Z,100666.66
2019-05-10T21:48:42.523Z,100669.00
2019-05-10T21:51:13.877Z,100672.64
2019-05-10T21:53:45.275Z,100673.03
2019-05-10T21:56:16.631Z,100672.65
2019-05-10T21:58:48.017Z,100665.05
2019-05-10T22:01:19.501Z,100659.97
2019-05-10T22:03:50.838Z,100666.33
2019-05-10T22:06:22.226Z,100658.69
2019-05-10T22:08:53.591Z,100666.38
2019-05-10T22:11:25.149Z,100661.03
2019-05-10T22:13:55.885Z,100664.02
2019-05-10T22:16:26.933Z,100670.94
2019-05-10T22:19:02.659Z,100662.05
2019-05-10T22:21:34.006Z,100661.78
2019-05-10T22:24:08.459Z,100668.14
2019-05-10T22:26:39.905Z,100671.34
2019-05-10T22:29:11.368Z,100668.00
2019-05-10T22:31:43.685Z,100669.44
2019-05-10T22:34:14.664Z,100670.07
2019-05-10T22:36:45.766Z,100674.53
2019-05-10T22:39:17.096Z,100670.04
2019-05-10T22:41:48.520Z,100672.34
2019-05-10T22:44:19.923Z,100674.05
2019-05-10T22:46:51.318Z,100670.92
2019-05-10T22:49:22.817Z,100676.39
2019-05-10T22:51:55.273Z,100667.55
2019-05-10T22:54:26.611Z,100672.30
2019-05-10T22:56:58.057Z,100667.86
2019-05-10T22:59:29.465Z,100669.22
2019-05-10T23:02:01.819Z,100666.70
2019-05-10T23:04:33.335Z,100665.45
2019-05-10T23:07:04.721Z,100668.25
2019-05-10T23:09:36.098Z,100673.20
2019-05-10T23:12:07.467Z,100672.05
2019-05-10T23:14:38.941Z,100674.45
2019-05-10T23:17:10.357Z,100668.00
2019-05-10T23:19:41.692Z,100673.17
2019-05-10T23:22:13.048Z,100657.50
2019-05-10T23:24:44.372Z,100657.50
2019-05-10T23:27:15.856Z,100661.85
2019-05-10T23:29:47.163Z,100666.66
2019-05-10T23:32:18.544Z,100667.37
2019-05-10T23:34:49.864Z,100673.70
2019-05-10T23:37:21.239Z,100670.63
2019-05-10T23:39:52.623Z,100670.12
2019-05-10T23:42:24.122Z,100677.47
2019-05-10T23:44:55.495Z,100669.59
2019-05-10T23:47:26.864Z,100668.56
2019-05-10T23:49:59.477Z,100672.45
2019-05-10T23:52:30.832Z,100666.98
2019-05-10T23:55:02.282Z,100672.80
2019-05-10T23:57:33.687Z,100663.91
